createdAt,value
2023-01-13T00:01:46.426Z,7.01
2023-01-13T00:04:13.222Z,7.01
2023-01-13T00:06:39.924Z,7.02
2023-01-13T00:09:06.903Z,7.02
2023-01-13T00:11:35.017Z,7.02
2023-01-13T00:14:01.573Z,7.02
2023-01-13T00:16:28.332Z,7.02
2023-01-13T00:18:55.164Z,7.04
2023-01-13T00:21:23.927Z,7.04
2023-01-13T00:23:55.013Z,7.05
2023-01-13T00:26:24.736Z,7.05
2023-01-13T00:28:56.473Z,7.05
2023-01-13T00:31:23.840Z,7.07
2023-01-13T00:33:50.653Z,7.07
2023-01-13T00:36:19.872Z,7.07
2023-01-13T00:38:47.289Z,7.06
2023-01-13T00:41:24.990Z,7.05
2023-01-13T00:43:51.865Z,7.04
2023-01-13T00:46:20.598Z,7.03
2023-01-13T00:48:48.172Z,7.02
2023-01-13T00:51:20.231Z,7.00
2023-01-13T00:53:49.973Z,6.99
2023-01-13T00:56:38.620Z,6.99
2023-01-13T00:59:09.976Z,6.99
2023-01-13T01:01:37.330Z,6.99
2023-01-13T01:04:04.544Z,6.99
2023-01-13T01:06:31.609Z,7.00
2023-01-13T01:08:58.395Z,7.00
2023-01-13T01:11:27.773Z,7.00
2023-01-13T01:13:56.583Z,7.00
2023-01-13T01:16:25.939Z,7.00
2023-01-13T01:18:53.583Z,6.99
2023-01-13T01:21:22.137Z,6.98
2023-01-13T01:23:48.985Z,6.98
2023-01-13T01:26:24.718Z,6.97
2023-01-13T01:28:52.640Z,6.96
2023-01-13T01:31:31.714Z,6.94
2023-01-13T01:34:00.066Z,6.93
2023-01-13T01:36:30.597Z,6.91
2023-01-13T01:38:59.092Z,6.91
2023-01-13T01:41:29.891Z,6.91
2023-01-13T01:43:59.963Z,6.90
2023-01-13T01:46:48.128Z,6.90
2023-01-13T01:49:19.990Z,6.90
2023-01-13T01:51:53.268Z,6.89
2023-01-13T01:54:27.565Z,6.89
2023-01-13T01:56:54.980Z,6.88
2023-01-13T01:59:22.960Z,6.89
2023-01-13T02:01:49.927Z,6.88
2023-01-13T02:04:32.620Z,6.87
2023-01-13T02:07:00.884Z,6.88
2023-01-13T02:09:29.884Z,6.89
2023-01-13T02:12:15.559Z,6.89
2023-01-13T02:14:43.187Z,6.89
2023-01-13T02:17:28.829Z,6.89
2023-01-13T02:20:13.565Z,6.87
2023-01-13T02:23:05.464Z,6.85
2023-01-13T02:26:06.854Z,6.85
2023-01-13T02:28:59.805Z,6.85
2023-01-13T02:31:43.415Z,6.85
2023-01-13T02:34:28.552Z,6.85
2023-01-13T02:37:03.404Z,6.86
2023-01-13T02:39:38.040Z,6.87
2023-01-13T02:42:49.879Z,6.87
2023-01-13T02:45:46.012Z,6.88
2023-01-13T02:48:14.879Z,6.89
2023-01-13T02:50:47.975Z,6.91
2023-01-13T02:53:21.368Z,6.91
2023-01-13T02:55:51.849Z,6.93
2023-01-13T02:58:24.601Z,6.93
2023-01-13T03:00:51.790Z,6.95
2023-01-13T03:03:19.205Z,6.96
2023-01-13T03:05:49.496Z,6.97
2023-01-13T03:08:33.311Z,6.98
2023-01-13T03:11:07.962Z,6.99
2023-01-13T03:14:08.017Z,6.99
2023-01-13T03:16:47.209Z,7.01
2023-01-13T03:19:26.062Z,7.01
2023-01-13T03:21:59.973Z,7.01
2023-01-13T03:24:42.567Z,7.01
2023-01-13T03:27:17.388Z,6.98
2023-01-13T03:29:51.756Z,6.95
2023-01-13T03:32:32.575Z,6.92
2023-01-13T03:35:03.632Z,6.90
2023-01-13T03:37:35.395Z,6.88
2023-01-13T03:40:08.462Z,6.85
2023-01-13T03:42:40.274Z,6.83
2023-01-13T03:45:15.412Z,6.81
2023-01-13T03:47:50.108Z,6.77
2023-01-13T03:50:35.241Z,6.72
2023-01-13T03:53:17.676Z,6.70
2023-01-13T03:55:49.915Z,6.67
2023-01-13T03:58:32.208Z,6.65
2023-01-13T04:01:05.058Z,6.63
2023-01-13T04:03:45.314Z,6.62
2023-01-13T04:06:26.350Z,6.60
2023-01-13T04:09:01.284Z,6.54
2023-01-13T04:11:33.713Z,6.50
2023-01-13T04:14:03.336Z,6.46
2023-01-13T04:16:31.233Z,6.45
2023-01-13T04:18:57.983Z,6.42
2023-01-13T04:21:25.065Z,6.39
2023-01-13T04:23:51.702Z,6.37
2023-01-13T04:26:19.317Z,6.35
2023-01-13T04:28:46.311Z,6.32
2023-01-13T04:31:13.024Z,6.30
2023-01-13T04:33:39.963Z,6.29
2023-01-13T04:36:07.293Z,6.29
2023-01-13T04:38:34.331Z,6.29
2023-01-13T04:41:01.051Z,6.29
2023-01-13T04:43:27.845Z,6.29
2023-01-13T04:45:54.575Z,6.28
2023-01-13T04:48:21.409Z,6.28
2023-01-13T04:50:48.531Z,6.29
2023-01-13T04:53:15.300Z,6.29
2023-01-13T04:55:43.995Z,6.29
2023-01-13T04:58:10.863Z,6.29
2023-01-13T05:00:38.165Z,6.29
2023-01-13T05:03:05.649Z,6.29
2023-01-13T05:05:32.570Z,6.29
2023-01-13T05:07:59.446Z,6.29
2023-01-13T05:10:26.920Z,6.29
2023-01-13T05:13:12.450Z,6.27
2023-01-13T05:15:59.215Z,6.27
2023-01-13T05:18:28.887Z,6.26
2023-01-13T05:20:55.538Z,6.26
2023-01-13T05:23:40.894Z,6.26
2023-01-13T05:26:08.145Z,6.25
2023-01-13T05:28:34.910Z,6.26
2023-01-13T05:31:01.829Z,6.26
2023-01-13T05:33:28.746Z,6.27
2023-01-13T05:35:55.435Z,6.27
2023-01-13T05:38:22.084Z,6.27
2023-01-13T05:41:07.619Z,6.28
2023-01-13T05:43:34.726Z,6.27
2023-01-13T05:46:05.114Z,6.28
2023-01-13T05:48:34.700Z,6.28
2023-01-13T05:51:03.363Z,6.28
2023-01-13T05:53:30.482Z,6.29
2023-01-13T05:55:57.524Z,6.29
2023-01-13T05:58:25.795Z,6.29
2023-01-13T06:00:53.488Z,6.30
2023-01-13T06:03:20.443Z,6.30
2023-01-13T06:05:47.768Z,6.31
2023-01-13T06:08:14.716Z,6.31
2023-01-13T06:10:41.359Z,6.32
2023-01-13T06:13:08.423Z,6.32
2023-01-13T06:15:35.207Z,6.32
2023-01-13T06:18:03.831Z,6.33
2023-01-13T06:20:30.864Z,6.33
2023-01-13T06:22:58.846Z,6.33
2023-01-13T06:25:32.858Z,6.33
2023-01-13T06:28:00.233Z,6.31
2023-01-13T06:30:30.698Z,6.31
2023-01-13T06:33:01.355Z,6.30
2023-01-13T06:35:34.312Z,6.30
2023-01-13T06:38:07.025Z,6.30
2023-01-13T06:40:34.652Z,6.29
2023-01-13T06:43:16.140Z,6.29
2023-01-13T06:45:54.872Z,6.28
2023-01-13T06:48:34.766Z,6.29
2023-01-13T06:51:03.310Z,6.30
2023-01-13T06:53:30.532Z,6.31
2023-01-13T06:55:57.371Z,6.31
2023-01-13T06:58:24.265Z,6.32
2023-01-13T07:00:51.140Z,6.32
2023-01-13T07:03:19.227Z,6.33
2023-01-13T07:05:54.227Z,6.33
2023-01-13T07:08:22.671Z,6.35
2023-01-13T07:10:50.640Z,6.36
2023-01-13T07:13:36.411Z,6.37
2023-01-13T07:16:06.041Z,6.38
2023-01-13T07:18:34.346Z,6.39
2023-01-13T07:21:06.958Z,6.40
2023-01-13T07:23:55.323Z,6.41
2023-01-13T07:26:22.375Z,6.43
2023-01-13T07:28:49.047Z,6.43
2023-01-13T07:31:18.473Z,6.43
2023-01-13T07:33:45.675Z,6.44
2023-01-13T07:36:13.832Z,6.44
2023-01-13T07:38:43.803Z,6.44
2023-01-13T07:41:33.698Z,6.45
2023-01-13T07:44:04.357Z,6.45
2023-01-13T07:46:32.291Z,6.45
2023-01-13T07:48:59.736Z,6.47
2023-01-13T07:51:26.737Z,6.48
2023-01-13T07:53:53.463Z,6.50
2023-01-13T07:56:20.289Z,6.51
2023-01-13T07:58:50.487Z,6.53
2023-01-13T08:01:19.928Z,6.55
2023-01-13T08:03:46.933Z,6.56
2023-01-13T08:06:14.468Z,6.59
2023-01-13T08:08:41.062Z,6.60
2023-01-13T08:11:08.748Z,6.63
2023-01-13T08:13:35.891Z,6.64
2023-01-13T08:16:05.923Z,6.66
2023-01-13T08:18:34.363Z,6.68
2023-01-13T08:21:04.024Z,6.70
2023-01-13T08:23:30.787Z,6.72
2023-01-13T08:26:02.675Z,6.75
2023-01-13T08:28:30.631Z,6.78
2023-01-13T08:31:02.136Z,6.80
2023-01-13T08:33:29.860Z,6.83
2023-01-13T08:35:57.176Z,6.85
2023-01-13T08:38:24.565Z,6.88
2023-01-13T08:40:51.500Z,6.91
2023-01-13T08:43:18.503Z,6.95
2023-01-13T08:45:45.183Z,6.97
2023-01-13T08:48:12.038Z,6.99
2023-01-13T08:50:38.963Z,7.02
2023-01-13T08:53:05.613Z,7.04
2023-01-13T08:55:32.585Z,7.06
2023-01-13T08:58:14.145Z,7.08
2023-01-13T09:00:42.438Z,7.10
2023-01-13T09:03:09.297Z,7.11
2023-01-13T09:05:36.477Z,7.13
2023-01-13T09:08:03.402Z,7.15
2023-01-13T09:10:30.253Z,7.16
2023-01-13T09:13:12.315Z,7.18
2023-01-13T09:15:41.234Z,7.19
2023-01-13T09:18:08.219Z,7.20
2023-01-13T09:20:34.967Z,7.22
2023-01-13T09:23:02.463Z,7.23
2023-01-13T09:25:29.677Z,7.25
2023-01-13T09:27:57.259Z,7.26
2023-01-13T09:30:24.764Z,7.28
2023-01-13T09:33:11.359Z,7.29
2023-01-13T09:35:38.905Z,7.31
2023-01-13T09:38:06.422Z,7.33
2023-01-13T09:40:33.709Z,7.34
2023-01-13T09:43:30.836Z,7.35
2023-01-13T09:46:42.456Z,7.37
2023-01-13T09:49:20.298Z,7.39
2023-01-13T09:51:58.607Z,7.42
2023-01-13T09:54:33.084Z,7.43
2023-01-13T09:57:00.445Z,7.45
2023-01-13T09:59:32.032Z,7.47
2023-01-13T10:02:18.130Z,7.49
2023-01-13T10:05:13.436Z,7.52
2023-01-13T10:07:54.504Z,7.55
2023-01-13T10:10:33.239Z,7.58
2023-01-13T10:13:16.277Z,7.62
2023-01-13T10:15:54.548Z,7.65
2023-01-13T10:18:25.192Z,7.68
2023-01-13T10:21:07.384Z,7.71
2023-01-13T10:23:51.021Z,7.74
2023-01-13T10:26:24.625Z,7.77
2023-01-13T10:28:53.231Z,7.80
2023-01-13T10:31:21.616Z,7.82
2023-01-13T10:33:48.824Z,7.85
2023-01-13T10:36:21.138Z,7.89
2023-01-13T10:38:50.385Z,7.92
2023-01-13T10:41:19.949Z,7.95
2023-01-13T10:44:03.747Z,7.99
2023-01-13T10:46:49.331Z,8.02
2023-01-13T10:49:32.587Z,8.05
2023-01-13T10:52:04.270Z,8.10
2023-01-13T10:54:31.123Z,8.13
2023-01-13T10:57:14.978Z,8.17
2023-01-13T10:59:42.417Z,8.21
2023-01-13T11:02:27.946Z,8.24
2023-01-13T11:04:55.143Z,8.27
2023-01-13T11:08:00.667Z,8.30
2023-01-13T11:10:32.055Z,8.33
2023-01-13T11:13:09.346Z,8.36
2023-01-13T11:15:58.517Z,8.39
2023-01-13T11:18:40.746Z,8.43
2023-01-13T11:21:41.010Z,8.45
2023-01-13T11:24:21.799Z,8.48
2023-01-13T11:27:04.091Z,8.51
2023-01-13T11:29:42.903Z,8.52
2023-01-13T11:32:18.624Z,8.54
2023-01-13T11:34:54.671Z,8.56
2023-01-13T11:37:32.234Z,8.57
2023-01-13T11:40:05.571Z,8.58
2023-01-13T11:42:38.218Z,8.58
2023-01-13T11:45:23.744Z,8.59
2023-01-13T11:47:54.250Z,8.60
2023-01-13T11:50:34.174Z,8.60
2023-01-13T11:53:11.756Z,8.62
2023-01-13T11:55:52.941Z,8.63
2023-01-13T11:58:50.714Z,8.64
2023-01-13T12:01:33.674Z,8.64
2023-01-13T12:04:08.817Z,8.65
2023-01-13T12:06:39.687Z,8.66
2023-01-13T12:09:25.170Z,8.67
2023-01-13T12:12:10.337Z,8.68
2023-01-13T12:15:15.018Z,8.70
2023-01-13T12:18:13.243Z,8.72
2023-01-13T12:21:15.603Z,8.74
2023-01-13T12:24:00.520Z,8.75
2023-01-13T12:26:31.591Z,8.77
2023-01-13T12:29:17.796Z,8.79
2023-01-13T12:31:48.574Z,8.82
2023-01-13T12:34:34.417Z,8.86
2023-01-13T12:37:47.402Z,8.90
2023-01-13T12:40:51.145Z,8.94
2023-01-13T12:43:51.870Z,8.98
2023-01-13T12:46:18.609Z,9.01
2023-01-13T12:48:45.672Z,9.03
2023-01-13T12:51:27.672Z,9.04
2023-01-13T12:53:55.904Z,9.04
2023-01-13T12:56:44.309Z,9.05
2023-01-13T12:59:18.488Z,9.06
2023-01-13T13:01:50.511Z,9.06
2023-01-13T13:04:43.022Z,9.06
2023-01-13T13:07:18.628Z,9.07
2023-01-13T13:09:51.996Z,9.07
2023-01-13T13:12:49.624Z,9.08
2023-01-13T13:15:22.972Z,9.09
2023-01-13T13:17:58.847Z,9.09
2023-01-13T13:21:04.198Z,9.09
2023-01-13T13:23:37.947Z,9.10
2023-01-13T13:26:25.519Z,9.10
2023-01-13T13:29:15.136Z,9.08
2023-01-13T13:32:02.549Z,9.06
2023-01-13T13:34:42.484Z,9.05
2023-01-13T13:37:25.962Z,9.04
2023-01-13T13:40:12.359Z,9.05
2023-01-13T13:43:14.396Z,9.05
2023-01-13T13:46:10.173Z,9.05
2023-01-13T13:48:37.272Z,9.05
2023-01-13T13:51:24.623Z,9.05
2023-01-13T13:53:52.151Z,9.04
2023-01-13T13:56:22.557Z,9.02
2023-01-13T13:58:50.171Z,9.00
2023-01-13T14:01:23.779Z,8.98
2023-01-13T14:04:17.448Z,8.96
2023-01-13T14:07:04.506Z,8.95
2023-01-13T14:09:43.821Z,8.93
2023-01-13T14:12:20.848Z,8.90
2023-01-13T14:14:48.793Z,8.87
2023-01-13T14:17:28.623Z,8.85
2023-01-13T14:20:09.596Z,8.81
2023-01-13T14:22:36.695Z,8.78
2023-01-13T14:25:30.999Z,8.75
2023-01-13T14:28:03.267Z,8.72
2023-01-13T14:30:30.994Z,8.71
2023-01-13T14:32:58.801Z,8.69
2023-01-13T14:35:25.723Z,8.67
2023-01-13T14:38:01.089Z,8.66
2023-01-13T14:40:48.990Z,8.65
2023-01-13T14:43:19.372Z,8.64
2023-01-13T14:46:06.541Z,8.63
2023-01-13T14:48:35.519Z,8.62
2023-01-13T14:51:06.017Z,8.62
2023-01-13T14:53:46.806Z,8.61
2023-01-13T14:56:35.915Z,8.61
2023-01-13T14:59:42.519Z,8.61
2023-01-13T15:02:24.923Z,8.62
2023-01-13T15:04:58.263Z,8.63
2023-01-13T15:07:27.351Z,8.64
2023-01-13T15:09:57.990Z,8.66
2023-01-13T15:12:40.263Z,8.68
2023-01-13T15:15:30.072Z,8.68
2023-01-13T15:17:57.016Z,8.69
2023-01-13T15:20:24.704Z,8.69
2023-01-13T15:22:51.836Z,8.71
2023-01-13T15:25:19.640Z,8.72
2023-01-13T15:27:51.248Z,8.73
2023-01-13T15:30:20.671Z,8.74
2023-01-13T15:32:47.771Z,8.74
2023-01-13T15:35:15.808Z,8.76
2023-01-13T15:37:44.804Z,8.78
2023-01-13T15:40:24.888Z,8.79
2023-01-13T15:43:10.530Z,8.79
2023-01-13T15:45:56.429Z,8.82
2023-01-13T15:48:25.944Z,8.84
2023-01-13T15:50:52.893Z,8.85
2023-01-13T15:53:19.790Z,8.86
2023-01-13T15:55:51.797Z,8.88
2023-01-13T15:58:20.848Z,8.89
2023-01-13T16:00:47.736Z,8.91
2023-01-13T16:03:16.471Z,8.94
2023-01-13T16:05:46.191Z,8.96
2023-01-13T16:08:21.226Z,8.99
2023-01-13T16:10:50.211Z,9.00
2023-01-13T16:13:20.558Z,9.01
2023-01-13T16:15:49.338Z,9.01
2023-01-13T16:18:23.197Z,9.02
2023-01-13T16:20:53.028Z,9.02
2023-01-13T16:23:19.778Z,9.03
2023-01-13T16:25:47.248Z,9.04
2023-01-13T16:28:21.354Z,9.04
2023-01-13T16:30:48.257Z,9.05
2023-01-13T16:33:15.076Z,9.06
2023-01-13T16:36:08.732Z,9.06
2023-01-13T16:38:29.329Z,9.07
2023-01-13T16:40:56.943Z,9.07
2023-01-13T16:43:23.507Z,9.08
2023-01-13T16:45:50.291Z,9.09
2023-01-13T16:48:19.980Z,9.12
2023-01-13T16:50:46.883Z,9.14
2023-01-13T16:53:13.782Z,9.15
2023-01-13T16:55:41.771Z,9.14
2023-01-13T16:58:20.341Z,9.16
2023-01-13T17:00:47.723Z,9.17
2023-01-13T17:03:15.566Z,9.18
2023-01-13T17:05:44.368Z,9.18
2023-01-13T17:08:16.933Z,9.19
2023-01-13T17:10:44.853Z,9.19
2023-01-13T17:13:16.372Z,9.19
2023-01-13T17:15:45.540Z,9.18
2023-01-13T17:18:12.693Z,9.18
2023-01-13T17:20:39.925Z,9.17
2023-01-13T17:23:06.658Z,9.16
2023-01-13T17:25:33.348Z,9.17
2023-01-13T17:28:00.334Z,9.17
2023-01-13T17:30:27.181Z,9.16
2023-01-13T17:32:53.833Z,9.15
2023-01-13T17:35:24.208Z,9.15
2023-01-13T17:37:52.679Z,9.15
2023-01-13T17:40:20.101Z,9.15
2023-01-13T17:42:47.349Z,9.14
2023-01-13T17:45:14.778Z,9.13
2023-01-13T17:47:41.540Z,9.12
2023-01-13T17:50:09.129Z,9.12
2023-01-13T17:52:36.029Z,9.09
2023-01-13T17:55:02.610Z,9.09
2023-01-13T17:57:29.673Z,9.07
2023-01-13T17:59:57.985Z,9.05
2023-01-13T18:02:26.189Z,9.04
2023-01-13T18:04:53.270Z,9.03
2023-01-13T18:07:20.227Z,9.02
2023-01-13T18:09:46.925Z,8.99
2023-01-13T18:12:14.171Z,8.97
2023-01-13T18:14:41.281Z,8.95
2023-01-13T18:17:09.797Z,8.93
2023-01-13T18:19:56.331Z,8.92
2023-01-13T18:22:43.025Z,8.90
2023-01-13T18:25:31.522Z,8.88
2023-01-13T18:28:04.392Z,8.88
2023-01-13T18:30:31.362Z,8.87
2023-01-13T18:32:58.305Z,8.86
2023-01-13T18:35:25.056Z,8.86
2023-01-13T18:37:52.440Z,8.85
2023-01-13T18:40:19.348Z,8.85
2023-01-13T18:42:56.429Z,8.85
2023-01-13T18:45:31.888Z,8.84
2023-01-13T18:48:01.199Z,8.83
2023-01-13T18:50:28.834Z,8.82
2023-01-13T18:52:56.699Z,8.83
2023-01-13T18:55:24.439Z,8.83
2023-01-13T18:57:53.179Z,8.82
2023-01-13T19:00:22.497Z,8.83
2023-01-13T19:02:51.702Z,8.83
2023-01-13T19:05:18.634Z,8.84
2023-01-13T19:07:50.568Z,8.85
2023-01-13T19:10:17.841Z,8.86
2023-01-13T19:12:44.958Z,8.86
2023-01-13T19:15:12.252Z,8.87
2023-01-13T19:17:39.392Z,8.86
2023-01-13T19:20:07.967Z,8.86
2023-01-13T19:22:35.656Z,8.86
2023-01-13T19:25:04.388Z,8.87
2023-01-13T19:27:32.531Z,8.88
2023-01-13T19:30:01.522Z,8.88
2023-01-13T19:32:30.990Z,8.89
2023-01-13T19:34:59.293Z,8.90
2023-01-13T19:37:29.728Z,8.91
2023-01-13T19:39:59.498Z,8.91
2023-01-13T19:42:45.354Z,8.92
2023-01-13T19:45:36.549Z,8.92
2023-01-13T19:48:05.386Z,8.92
2023-01-13T19:50:39.246Z,8.93
2023-01-13T19:53:17.442Z,8.93
2023-01-13T19:55:47.815Z,8.93
2023-01-13T19:58:14.958Z,8.93
2023-01-13T20:00:46.852Z,8.92
2023-01-13T20:03:14.360Z,8.93
2023-01-13T20:05:42.547Z,8.92
2023-01-13T20:08:10.722Z,8.91
2023-01-13T20:10:38.071Z,8.90
2023-01-13T20:13:04.878Z,8.90
2023-01-13T20:15:31.908Z,8.89
2023-01-13T20:17:59.869Z,8.88
2023-01-13T20:20:26.878Z,8.86
2023-01-13T20:22:53.605Z,8.86
2023-01-13T20:25:20.681Z,8.86
2023-01-13T20:27:48.048Z,8.84
2023-01-13T20:30:15.765Z,8.84
2023-01-13T20:32:44.679Z,8.82
2023-01-13T20:35:11.466Z,8.81
2023-01-13T20:37:40.556Z,8.80
2023-01-13T20:40:10.550Z,8.78
2023-01-13T20:42:49.582Z,8.76
2023-01-13T20:45:20.180Z,8.75
2023-01-13T20:47:47.312Z,8.73
2023-01-13T20:50:15.111Z,8.70
2023-01-13T20:52:42.089Z,8.69
2023-01-13T20:55:10.066Z,8.67
2023-01-13T20:57:36.770Z,8.66
2023-01-13T21:00:04.593Z,8.64
2023-01-13T21:02:32.500Z,8.62
2023-01-13T21:04:59.471Z,8.60
2023-01-13T21:07:27.745Z,8.58
2023-01-13T21:09:57.179Z,8.56
2023-01-13T21:12:42.730Z,8.56
2023-01-13T21:15:17.747Z,8.54
2023-01-13T21:18:06.094Z,8.52
2023-01-13T21:20:35.286Z,8.51
2023-01-13T21:23:03.463Z,8.49
2023-01-13T21:25:32.686Z,8.47
2023-01-13T21:28:07.639Z,8.46
2023-01-13T21:30:34.995Z,8.44
2023-01-13T21:33:03.836Z,8.43
2023-01-13T21:35:31.177Z,8.40
2023-01-13T21:37:58.521Z,8.38
2023-01-13T21:40:25.925Z,8.36
2023-01-13T21:43:11.233Z,8.35
2023-01-13T21:45:57.315Z,8.33
2023-01-13T21:48:24.267Z,8.32
2023-01-13T21:50:51.090Z,8.31
2023-01-13T21:53:17.693Z,8.29
2023-01-13T21:55:44.438Z,8.28
2023-01-13T21:58:14.656Z,8.26
2023-01-13T22:00:43.801Z,8.25
2023-01-13T22:03:13.402Z,8.23
2023-01-13T22:05:40.736Z,8.21
2023-01-13T22:08:07.892Z,8.18
2023-01-13T22:10:35.211Z,8.14
2023-01-13T22:13:22.364Z,8.12
2023-01-13T22:15:49.396Z,8.09
2023-01-13T22:18:17.615Z,8.06
2023-01-13T22:20:44.991Z,8.03
2023-01-13T22:23:11.903Z,8.00
2023-01-13T22:25:38.729Z,7.97
2023-01-13T22:28:08.063Z,7.95
2023-01-13T22:30:35.109Z,7.92
2023-01-13T22:33:01.933Z,7.89
2023-01-13T22:35:28.603Z,7.86
2023-01-13T22:37:55.420Z,7.83
2023-01-13T22:40:22.371Z,7.81
2023-01-13T22:42:49.003Z,7.78
2023-01-13T22:45:16.014Z,7.75
2023-01-13T22:47:43.153Z,7.72
2023-01-13T22:50:11.984Z,7.69
2023-01-13T22:52:39.066Z,7.67
2023-01-13T22:55:06.564Z,7.65
2023-01-13T22:57:36.528Z,7.62
2023-01-13T23:00:10.054Z,7.59
2023-01-13T23:02:37.629Z,7.56
2023-01-13T23:05:04.761Z,7.54
2023-01-13T23:07:31.703Z,7.52
2023-01-13T23:09:58.307Z,7.49
2023-01-13T23:12:24.910Z,7.47
2023-01-13T23:14:51.924Z,7.45
2023-01-13T23:17:18.525Z,7.43
2023-01-13T23:19:45.111Z,7.41
2023-01-13T23:22:12.940Z,7.40
2023-01-13T23:24:39.599Z,7.38
2023-01-13T23:27:06.192Z,7.38
2023-01-13T23:29:33.304Z,7.36
2023-01-13T23:31:59.921Z,7.36
2023-01-13T23:34:26.560Z,7.35
2023-01-13T23:36:53.765Z,7.35
2023-01-13T23:39:20.318Z,7.35
2023-01-13T23:41:46.914Z,7.35
2023-01-13T23:44:14.110Z,7.34
2023-01-13T23:46:40.884Z,7.34
2023-01-13T23:49:07.579Z,7.33
2023-01-13T23:51:34.861Z,7.34
2023-01-13T23:54:01.706Z,7.33
2023-01-13T23:56:30.473Z,7.33
2023-01-13T23:58:57.801Z,7.33
